Time;durP1;ratioP1;P1;durP2;ratioP2;P2;SDS_P1;SDS_P2;PMS_P1;PMS_P2;Temp;Humidity;BMP_temperature;BMP_pressure;BME280_temperature;BME280_humidity;BME280_pressure;Samples;Min_cycle;Max_cycle;Signal;HPM_P1;HPM_P2
2023/12/19 00:04:39;;;;;;;70.38;36.33;;;;;;;7.06;100.00;102412.88;10335379;28;20470;-72
2023/12/19 00:09:40;;;;;;;58.53;39.58;;;;;;;7.04;100.00;102380.66;10335195;28;20061;-72
2023/12/19 00:14:40;;;;;;;74.57;34.80;;;;;;;7.05;100.00;102354.59;10334470;28;20138;-72
2023/12/19 00:19:41;;;;;;;66.53;35.75;;;;;;;7.03;100.00;102368.19;10334767;28;20061;-71
2023/12/19 00:24:42;;;;;;;56.85;35.35;;;;;;;6.99;100.00;102361.41;10334517;28;20043;-71
2023/12/19 00:29:42;;;;;;;59.30;34.30;;;;;;;7.07;100.00;102358.84;10333149;28;20499;-72
2023/12/19 00:34:43;;;;;;;56.50;35.33;;;;;;;7.10;100.00;102346.94;10333582;28;20133;-72
2023/12/19 00:39:43;;;;;;;59.63;38.25;;;;;;;7.10;100.00;102349.66;10334980;28;20447;-72
2023/12/19 00:44:43;;;;;;;46.25;32.28;;;;;;;7.11;100.00;102341.41;10333015;28;20029;-72
2023/12/19 00:49:44;;;;;;;48.00;31.08;;;;;;;7.12;100.00;102350.38;10333068;28;20481;-72
2023/12/19 00:54:44;;;;;;;51.85;32.33;;;;;;;7.07;100.00;102326.53;10333472;28;20027;-72
2023/12/19 00:59:45;;;;;;;56.42;36.30;;;;;;;7.09;100.00;102319.16;10332693;28;20064;-72
2023/12/19 01:04:45;;;;;;;72.25;41.42;;;;;;;7.08;100.00;102321.97;10332190;28;20153;-73
2023/12/19 01:09:46;;;;;;;49.30;32.47;;;;;;;7.17;100.00;102305.81;10332934;28;20058;-72
2023/12/19 01:14:46;;;;;;;58.40;34.17;;;;;;;7.17;100.00;102300.44;10333224;28;20034;-71
2023/12/19 01:19:47;;;;;;;45.40;31.98;;;;;;;7.19;100.00;102309.25;10332855;28;20422;-71
2023/12/19 01:24:47;;;;;;;47.17;34.40;;;;;;;7.14;100.00;102298.03;10332960;28;20377;-71
2023/12/19 01:29:48;;;;;;;45.38;30.25;;;;;;;7.09;100.00;102308.41;10334080;28;20386;-72
2023/12/19 01:34:48;;;;;;;59.80;34.17;;;;;;;7.11;100.00;102297.47;10332523;28;20126;-72
2023/12/19 01:39:49;;;;;;;55.72;31.50;;;;;;;7.10;100.00;102320.00;10337637;28;20030;-72
2023/12/19 01:45:06;;;;;;;50.20;32.88;;;;;;;6.99;100.00;102299.47;10344739;28;20109;-72
2023/12/19 01:50:07;;;;;;;52.58;34.38;;;;;;;7.01;100.00;102299.31;10345737;28;20455;-72
2023/12/19 01:55:08;;;;;;;0.70;0.70;;;;;;;7.06;100.00;102294.34;10339174;28;20073;-72
2023/12/19 02:00:12;;;;;;;10.75;3.22;;;;;;;6.99;100.00;102276.06;10337989;28;20066;-72
2023/12/19 02:05:12;;;;;;;3.88;3.72;;;;;;;7.02;100.00;102276.75;10354412;28;20466;-72
2023/12/19 02:10:13;;;;;;;0.70;0.70;;;;;;;7.08;100.00;102271.66;10340017;28;20042;-72
2023/12/19 02:15:14;;;;;;;2.22;2.15;;;;;;;7.01;100.00;102272.38;10340907;28;20088;-73
2023/12/19 02:20:14;;;;;;;5.05;3.83;;;;;;;6.97;100.00;102240.31;10354472;28;20089;-72
2023/12/19 02:25:15;;;;;;;0.93;0.93;;;;;;;6.98;100.00;102214.25;10354391;28;20038;-73
2023/12/19 02:30:15;;;;;;;1.15;1.15;;;;;;;6.95;100.00;102219.91;10340241;28;20042;-73
2023/12/19 02:35:16;;;;;;;1.50;1.50;;;;;;;7.01;100.00;102226.59;10338376;28;20038;-74
2023/12/19 02:40:16;;;;;;;1.30;1.30;;;;;;;7.03;100.00;102203.06;10338551;28;20069;-73
2023/12/19 02:45:16;;;;;;;6.25;3.65;;;;;;;7.11;100.00;102203.19;10338402;28;20030;-72
2023/12/19 02:50:17;;;;;;;2.58;2.47;;;;;;;7.09;100.00;102189.88;10338324;28;20045;-73
2023/12/19 02:55:17;;;;;;;1.45;1.42;;;;;;;7.18;100.00;102180.09;10337398;28;20475;-73
2023/12/19 03:00:18;;;;;;;1.25;1.25;;;;;;;7.17;100.00;102173.81;10336427;28;20062;-74
2023/12/19 03:05:18;;;;;;;1.13;1.13;;;;;;;7.20;100.00;102170.84;10337795;28;20038;-73
2023/12/19 03:10:19;;;;;;;0.60;0.60;;;;;;;7.18;100.00;102162.06;10335622;28;20478;-73
2023/12/19 03:15:19;;;;;;;1.77;1.63;;;;;;;7.25;100.00;102150.72;10351704;28;20034;-75
2023/12/19 03:20:20;;;;;;;1.50;1.50;;;;;;;7.25;100.00;102153.41;10337867;28;20038;-75
2023/12/19 03:25:20;;;;;;;5.03;4.15;;;;;;;7.23;100.00;102140.06;10336469;28;20034;-74
2023/12/19 03:30:20;;;;;;;3.72;3.58;;;;;;;7.26;100.00;102138.94;10336721;28;20418;-74
2023/12/19 03:35:21;;;;;;;4.53;4.22;;;;;;;7.26;100.00;102129.00;10336698;28;20057;-75
2023/12/19 03:40:22;;;;;;;4.47;4.03;;;;;;;7.18;100.00;102100.13;10336483;28;20089;-74
2023/12/19 03:45:22;;;;;;;1.27;1.27;;;;;;;7.15;100.00;102080.69;10336122;28;20049;-74
2023/12/19 03:50:22;;;;;;;3.85;3.35;;;;;;;7.19;100.00;102071.31;10336131;28;20045;-74
2023/12/19 03:55:23;;;;;;;1.35;1.35;;;;;;;7.28;100.00;102065.06;10335974;28;20050;-74
2023/12/19 04:00:23;;;;;;;0.60;0.60;;;;;;;7.41;100.00;102075.50;10335188;28;20597;-75
2023/12/19 04:05:23;;;;;;;1.38;1.35;;;;;;;7.38;100.00;102082.03;10350761;28;20041;-75
2023/12/19 04:10:24;;;;;;;1.98;1.88;;;;;;;7.38;100.00;102065.88;10338133;28;20042;-77
2023/12/19 04:15:24;;;;;;;3.20;2.97;;;;;;;7.42;100.00;102066.41;10357077;28;20390;-75
2023/12/19 04:20:25;;;;;;;8.68;4.38;;;;;;;7.42;100.00;102069.09;10333693;28;20058;-75
2023/12/19 04:25:25;;;;;;;1.67;1.67;;;;;;;7.53;100.00;102055.47;10335342;28;20037;-74
2023/12/19 04:30:25;;;;;;;1.83;1.73;;;;;;;7.54;100.00;102046.38;10334434;28;20378;-76
2023/12/19 04:35:26;;;;;;;3.05;2.67;;;;;;;7.57;100.00;102050.63;10334055;28;20096;-75
2023/12/19 04:40:26;;;;;;;2.90;2.80;;;;;;;7.59;100.00;102035.97;10333368;28;20030;-75
2023/12/19 04:45:27;;;;;;;3.13;3.03;;;;;;;7.65;100.00;102038.06;10334751;28;20323;-76
2023/12/19 04:50:27;;;;;;;2.05;1.52;;;;;;;7.70;100.00;102034.94;10333803;28;20030;-75
2023/12/19 04:55:27;;;;;;;0.90;0.90;;;;;;;7.74;100.00;102038.16;10335010;28;20541;-75
2023/12/19 05:00:28;;;;;;;2.45;2.35;;;;;;;7.78;100.00;102031.47;10333740;28;20086;-75
2023/12/19 05:05:28;;;;;;;1.48;1.48;;;;;;;7.79;100.00;102025.94;10334331;28;20455;-76
2023/12/19 05:10:29;;;;;;;4.35;3.08;;;;;;;7.82;100.00;102019.41;10334725;28;20054;-76
2023/12/19 05:15:32;;;;;;;1.60;1.50;;;;;;;7.82;100.00;102017.53;10331586;28;20113;-75
2023/12/19 05:20:33;;;;;;;3.92;2.40;;;;;;;7.92;100.00;102012.09;10332590;28;20042;-75
2023/12/19 05:25:33;;;;;;;4.75;4.32;;;;;;;7.99;100.00;101996.97;10331934;28;20057;-74
2023/12/19 05:30:33;;;;;;;2.78;2.55;;;;;;;7.98;100.00;101997.97;10332706;28;20061;-74
2023/12/19 05:35:34;;;;;;;1.83;1.83;;;;;;;8.08;100.00;101984.41;10330754;28;20117;-75
2023/12/19 05:40:35;;;;;;;1.17;1.17;;;;;;;8.07;100.00;101986.28;10332507;28;20061;-75
2023/12/19 05:45:35;;;;;;;3.65;3.50;;;;;;;8.18;100.00;101978.94;10332975;28;20102;-74
2023/12/19 05:50:36;;;;;;;1.20;1.20;;;;;;;8.26;100.00;101960.09;10332323;28;20412;-74
2023/12/19 05:55:36;;;;;;;0.73;0.73;;;;;;;8.35;100.00;101962.72;10332715;28;20030;-75
2023/12/19 06:00:36;;;;;;;3.90;1.13;;;;;;;8.36;100.00;101959.03;10330485;28;20062;-74
2023/12/19 06:05:38;;;;;;;1.05;1.05;;;;;;;8.40;100.00;101951.50;10346699;28;20089;-74
2023/12/19 06:10:39;;;;;;;0.98;0.98;;;;;;;8.49;100.00;101952.41;10331726;28;20485;-76
2023/12/19 06:15:39;;;;;;;4.03;3.30;;;;;;;8.48;100.00;101956.94;10329935;28;20045;-74
2023/12/19 06:20:42;;;;;;;9.40;3.00;;;;;;;8.58;100.00;101941.50;10331469;28;20382;-74
2023/12/19 06:25:42;;;;;;;0.60;0.60;;;;;;;8.62;100.00;101944.72;10334784;28;20104;-74
2023/12/19 06:30:43;;;;;;;6.63;5.63;;;;;;;8.68;100.00;101935.13;10337999;28;20120;-74
2023/12/19 06:35:44;;;;;;;3.05;2.47;;;;;;;8.70;100.00;101917.75;10338543;28;20062;-74
2023/12/19 06:40:45;;;;;;;2.40;2.30;;;;;;;8.76;100.00;101927.06;10339027;28;20112;-74
2023/12/19 06:45:45;;;;;;;5.40;2.17;;;;;;;8.85;100.00;101924.25;10354306;28;20030;-75
2023/12/19 06:50:45;;;;;;;1.33;1.33;;;;;;;8.86;100.00;101917.00;10337172;28;20109;-75
2023/12/19 06:55:46;;;;;;;3.83;3.60;;;;;;;8.89;100.00;101910.44;10337986;28;20034;-74
2023/12/19 07:00:47;;;;;;;1.17;1.17;;;;;;;8.85;100.00;101918.84;10337556;28;20474;-74
2023/12/19 07:05:48;;;;;;;0.55;0.55;;;;;;;8.86;100.00;101917.00;10336454;28;20038;-74
2023/12/19 07:10:48;;;;;;;0.70;0.70;;;;;;;8.90;100.00;101918.34;10336556;28;20125;-75
2023/12/19 07:15:48;;;;;;;2.58;2.47;;;;;;;8.93;100.00;101901.81;10336320;28;20066;-74
2023/12/19 07:20:49;;;;;;;1.30;1.30;;;;;;;8.91;100.00;101900.31;10336344;28;20367;-74
2023/12/19 07:25:49;;;;;;;4.05;3.83;;;;;;;8.91;100.00;101897.63;10335527;28;20037;-75
2023/12/19 07:30:50;;;;;;;1.33;1.33;;;;;;;8.93;100.00;101901.81;10336196;28;20084;-75
2023/12/19 07:35:51;;;;;;;1.17;1.17;;;;;;;8.86;100.00;101884.59;10335871;28;20480;-74
2023/12/19 07:40:52;;;;;;;1.08;1.08;;;;;;;8.78;100.00;101893.50;10335315;28;20065;-75
2023/12/19 07:45:52;;;;;;;1.42;1.42;;;;;;;8.77;100.00;101901.75;10336508;28;20363;-75
2023/12/19 07:50:54;;;;;;;0.65;0.65;;;;;;;8.77;100.00;101896.34;10335632;28;20042;-75
2023/12/19 07:55:57;;;;;;;0.60;0.60;;;;;;;8.70;100.00;101890.75;10334103;28;20080;-75
2023/12/19 08:00:57;;;;;;;0.50;0.50;;;;;;;8.65;100.00;101876.91;10333362;28;20050;-75
2023/12/19 08:05:58;;;;;;;0.30;0.30;;;;;;;8.62;100.00;101879.94;10335405;28;20467;-74
2023/12/19 08:10:58;;;;;;;1.58;1.58;;;;;;;8.60;100.00;101871.97;10335160;28;20038;-75
2023/12/19 08:15:59;;;;;;;0.50;0.50;;;;;;;8.63;100.00;101867.28;10318180;28;20034;-75
2023/12/19 08:20:59;;;;;;;1.25;1.25;;;;;;;8.59;100.00;101867.59;10334634;28;20042;-74
2023/12/19 08:25:59;;;;;;;2.15;2.05;;;;;;;8.65;100.00;101860.72;10348869;28;20558;-74
2023/12/19 08:31:00;;;;;;;1.30;1.30;;;;;;;8.64;100.00;101866.25;10334320;28;20062;-74
2023/12/19 08:36:00;;;;;;;0.45;0.45;;;;;;;8.66;100.00;101867.78;10334075;28;20038;-74
2023/12/19 08:41:01;;;;;;;0.60;0.60;;;;;;;8.65;100.00;101849.03;10334450;28;20498;-74
2023/12/19 08:46:02;;;;;;;0.50;0.50;;;;;;;8.63;100.00;101851.91;10332519;28;20074;-74
2023/12/19 08:51:04;;;;;;;1.00;1.00;;;;;;;8.62;100.00;101850.22;10332899;28;20084;-74
2023/12/19 08:56:05;;;;;;;1.63;1.52;;;;;;;8.50;100.00;101841.56;10320688;28;20389;-74
2023/12/19 09:01:05;;;;;;;0.93;0.93;;;;;;;8.46;100.00;101840.19;10335826;28;20135;-74
2023/12/19 09:06:06;;;;;;;1.02;1.02;;;;;;;8.53;100.00;101843.94;10335631;28;20467;-74
2023/12/19 09:11:08;;;;;;;0.55;0.55;;;;;;;8.49;100.00;101847.13;10333469;28;20390;-75
2023/12/19 09:16:08;;;;;;;0.60;0.60;;;;;;;8.47;100.00;101836.47;10332754;28;20038;-75
2023/12/19 09:21:09;;;;;;;0.50;0.50;;;;;;;8.48;100.00;101840.84;10330653;28;20498;-74
2023/12/19 09:26:09;;;;;;;1.25;1.25;;;;;;;8.47;100.00;101819.44;10332802;28;20030;-74
2023/12/19 09:31:10;;;;;;;3.28;2.90;;;;;;;8.50;100.00;101816.41;10316312;28;20034;-74
2023/12/19 09:36:24;;;;;;;1.88;1.38;;;;;;;8.53;100.00;101808.00;10332335;28;20117;-74
2023/12/19 09:41:24;;;;;;;1.98;1.88;;;;;;;8.51;100.00;101813.53;10332001;28;20027;-74
2023/12/19 09:46:25;;;;;;;0.57;0.57;;;;;;;8.59;100.00;101808.19;10331145;28;20391;-74
2023/12/19 09:51:30;;;;;;;0.40;0.40;;;;;;;8.60;100.00;101803.63;10331764;28;20046;-75
2023/12/19 09:56:30;;;;;;;1.58;1.58;;;;;;;8.59;100.00;101807.34;10332671;28;20085;-74
2023/12/19 10:01:33;;;;;;;1.15;1.15;;;;;;;8.63;100.00;101802.47;10336998;28;20438;-74
2023/12/19 10:06:33;;;;;;;0.50;0.50;;;;;;;8.65;100.00;101789.63;10338261;28;20034;-74
2023/12/19 10:11:33;;;;;;;0.70;0.70;;;;;;;8.66;100.00;101783.25;10339361;28;20046;-75
2023/12/19 10:16:40;;;;;;;0.82;0.82;;;;;;;8.71;100.00;101783.59;10339223;28;20125;-75
2023/12/19 10:21:41;;;;;;;1.52;1.52;;;;;;;8.76;100.00;101775.84;10339113;28;20022;-74
2023/12/19 10:26:41;;;;;;;0.40;0.40;;;;;;;8.69;100.00;101764.00;10339097;28;20096;-75
2023/12/19 10:31:42;;;;;;;0.68;0.68;;;;;;;8.77;100.00;101767.56;10338135;28;20038;-74
2023/12/19 10:36:43;;;;;;;0.40;0.40;;;;;;;8.75;100.00;101730.97;10337628;28;20473;-75
2023/12/19 10:41:44;;;;;;;0.63;0.63;;;;;;;8.74;100.00;101746.31;10339525;28;20117;-74
2023/12/19 10:46:44;;;;;;;1.77;1.73;;;;;;;8.74;100.00;101731.94;10337857;28;20533;-74
2023/12/19 10:51:45;;;;;;;22.67;4.15;;;;;;;8.68;100.00;101738.00;10336245;28;20050;-74
2023/12/19 10:56:51;;;;;;;0.40;0.40;;;;;;;8.66;100.00;101718.44;10337456;28;20030;-75
2023/12/19 11:01:51;;;;;;;2.47;2.25;;;;;;;8.66;100.00;101688.75;10338687;28;20050;-74
2023/12/19 11:06:56;;;;;;;1.73;1.63;;;;;;;8.70;100.00;101676.59;10337102;28;20038;-74
2023/12/19 11:11:56;;;;;;;0.45;0.45;;;;;;;8.73;100.00;101663.59;10336277;28;20037;-75
2023/12/19 11:17:11;;;;;;;0.47;0.47;;;;;;;8.66;100.00;101662.59;10336664;28;20073;-74
2023/12/19 11:22:26;;;;;;;0.80;0.80;;;;;;;8.61;100.00;101655.00;10338667;28;20109;-74
2023/12/19 11:27:32;;;;;;;0.55;0.55;;;;;;;8.71;100.00;101653.97;10339208;28;20026;-76
2023/12/19 11:32:35;;;;;;;3.03;1.38;;;;;;;8.73;100.00;101624.94;10324998;28;20042;-74
2023/12/19 11:37:36;;;;;;;0.85;0.85;;;;;;;8.73;100.00;101624.94;10340134;28;20114;-74
2023/12/19 11:42:39;;;;;;;0.98;0.98;;;;;;;8.74;100.00;101629.34;10351598;28;20510;-74
2023/12/19 11:47:39;;;;;;;1.05;1.05;;;;;;;8.67;100.00;101615.66;10336143;28;20035;-74
2023/12/19 11:52:42;;;;;;;2.13;2.03;;;;;;;8.71;100.00;101608.94;10351507;28;20034;-74
2023/12/19 11:57:42;;;;;;;0.52;0.52;;;;;;;8.71;100.00;101600.84;10335610;28;20030;-74
2023/12/19 12:02:43;;;;;;;0.60;0.60;;;;;;;8.71;100.00;101598.13;10334717;28;20422;-75
2023/12/19 12:07:47;;;;;;;2.22;2.13;;;;;;;8.72;100.00;101585.47;10334840;28;20113;-75
2023/12/19 12:12:49;;;;;;;0.40;0.40;;;;;;;8.73;100.00;101592.56;10336097;28;20061;-74
2023/12/19 12:17:50;;;;;;;0.47;0.47;;;;;;;8.78;100.00;101582.09;10334353;28;20115;-74
2023/12/19 12:22:57;;;;;;;0.50;0.50;;;;;;;8.78;100.00;101574.00;10333014;28;20034;-73
2023/12/19 12:28:10;;;;;;;1.00;1.00;;;;;;;8.78;100.00;101565.91;10335354;28;20034;-74
2023/12/19 12:33:11;;;;;;;2.05;1.95;;;;;;;8.76;100.00;101570.59;10332149;28;20341;-74
2023/12/19 12:43:27;;;;;;;0.38;0.38;;;;;;;8.79;100.00;101570.28;10614562;27;1253315;-75
2023/12/19 12:48:27;;;;;;;0.35;0.35;;;;;;;8.87;100.00;101588.31;10612614;27;20031;-75
2023/12/19 12:53:28;;;;;;;0.85;0.85;;;;;;;8.93;100.00;101588.47;10612612;27;20111;-75
2023/12/19 12:58:28;;;;;;;0.40;0.40;;;;;;;8.97;100.00;101592.56;10612177;28;20036;-78
2023/12/19 13:03:29;;;;;;;0.40;0.40;;;;;;;9.04;100.00;101596.25;10611697;28;20066;-77
2023/12/19 13:08:30;;;;;;;0.40;0.40;;;;;;;9.01;100.00;101574.97;10610368;28;20031;-76
2023/12/19 13:13:31;;;;;;;0.40;0.40;;;;;;;9.03;100.00;101561.28;10611858;27;20108;-76
2023/12/19 13:18:31;;;;;;;0.30;0.30;;;;;;;9.15;100.00;101559.09;10609932;28;20062;-76
2023/12/19 13:23:32;;;;;;;0.38;0.38;;;;;;;9.21;100.00;101553.00;10611599;28;20570;-77
2023/12/19 13:28:32;;;;;;;0.68;0.68;;;;;;;9.20;100.00;101541.34;10609713;28;20038;-76
2023/12/19 13:33:33;;;;;;;0.40;0.40;;;;;;;9.23;100.00;101542.88;10609601;28;20047;-75
2023/12/19 13:38:33;;;;;;;0.50;0.50;;;;;;;9.28;100.00;101544.03;10609534;27;20278;-77
2023/12/19 13:43:35;;;;;;;0.40;0.40;;;;;;;9.31;100.00;101545.53;10591705;28;20404;-76
2023/12/19 13:48:36;;;;;;;0.60;0.60;;;;;;;9.34;100.00;101547.88;10610009;27;20043;-76
2023/12/19 13:53:36;;;;;;;0.40;0.40;;;;;;;9.42;100.00;101555.97;10586966;28;20035;-77
2023/12/19 13:58:37;;;;;;;0.73;0.73;;;;;;;9.51;100.00;101565.75;10563544;28;20075;-76
2023/12/19 14:03:38;;;;;;;0.40;0.40;;;;;;;9.55;100.00;101561.69;10580789;28;20031;-76
2023/12/19 14:08:44;;;;;;;0.40;0.40;;;;;;;9.57;100.00;101557.94;10579388;28;20277;-76
2023/12/19 14:13:45;;;;;;;0.50;0.50;;;;;;;9.52;100.00;101555.78;10580995;28;20043;-76
2023/12/19 14:18:45;;;;;;;0.40;0.40;;;;;;;9.46;100.00;101546.50;10581250;28;20047;-76
2023/12/19 14:23:48;;;;;;;0.30;0.30;;;;;;;9.40;100.00;101539.06;10580578;28;20031;-76
2023/12/19 14:28:49;;;;;;;0.40;0.40;;;;;;;9.38;100.00;101534.84;10581440;28;20035;-75
2023/12/19 14:33:50;;;;;;;0.40;0.40;;;;;;;9.32;100.00;101539.97;10581343;27;20038;-76
2023/12/19 14:38:50;;;;;;;0.40;0.40;;;;;;;9.30;100.00;101544.69;10580444;28;20055;-76
2023/12/19 14:43:51;;;;;;;0.20;0.20;;;;;;;9.30;100.00;101538.44;10580072;28;20050;-76
2023/12/19 14:48:51;;;;;;;0.30;0.30;;;;;;;9.35;100.00;101540.63;10578885;28;20378;-76
2023/12/19 14:53:56;;;;;;;0.43;0.43;;;;;;;9.32;100.00;101539.97;10579939;28;20036;-75
2023/12/19 14:58:57;;;;;;;0.30;0.30;;;;;;;9.31;100.00;101526.59;10578282;28;20043;-77
2023/12/19 15:03:58;;;;;;;0.50;0.50;;;;;;;9.29;100.00;101523.25;10577423;28;20471;-76
2023/12/19 15:08:58;;;;;;;0.50;0.50;;;;;;;9.31;100.00;101526.59;10578935;28;20446;-76
2023/12/19 15:14:00;;;;;;;0.77;0.77;;;;;;;9.32;100.00;101536.41;10578419;28;20105;-77
2023/12/19 15:19:01;;;;;;;0.50;0.50;;;;;;;9.33;100.00;101530.00;10576688;28;20040;-76
2023/12/19 15:24:02;;;;;;;0.30;0.30;;;;;;;9.34;100.00;101528.13;10578053;28;20046;-76
2023/12/19 15:29:02;;;;;;;0.30;0.30;;;;;;;9.27;100.00;101528.81;10577762;28;20114;-76
2023/12/19 15:34:03;;;;;;;0.40;0.40;;;;;;;9.31;100.00;101554.47;10575714;28;20035;-76
2023/12/19 15:39:04;;;;;;;0.38;0.38;;;;;;;9.30;100.00;101568.19;10577276;28;20071;-76
2023/12/19 15:44:04;;;;;;;0.47;0.47;;;;;;;9.28;100.00;101554.84;10576108;28;20138;-77
2023/12/19 15:49:05;;;;;;;0.50;0.50;;;;;;;9.11;100.00;101561.28;10576650;28;20127;-76
2023/12/19 15:54:05;;;;;;;3.40;3.05;;;;;;;9.00;100.00;101557.09;10575507;28;20043;-76
2023/12/19 15:59:06;;;;;;;2.50;2.33;;;;;;;8.93;100.00;101561.47;10575166;28;20071;-77
2023/12/19 16:04:09;;;;;;;1.25;1.25;;;;;;;8.83;100.00;101537.34;10575948;28;20545;-76
2023/12/19 16:09:10;;;;;;;0.50;0.50;;;;;;;8.82;100.00;101537.53;10575966;28;20157;-76
2023/12/19 16:14:10;;;;;;;0.47;0.47;;;;;;;8.85;100.00;101559.63;10574938;28;20156;-75
2023/12/19 16:19:11;;;;;;;0.40;0.40;;;;;;;8.87;100.00;101545.09;10557653;28;20032;-76
2023/12/19 16:24:11;;;;;;;0.38;0.38;;;;;;;8.89;100.00;101549.31;10575807;28;20044;-75
2023/12/19 16:29:12;;;;;;;0.45;0.45;;;;;;;8.88;100.00;101553.06;10573861;28;20035;-75
2023/12/19 16:34:12;;;;;;;2.75;2.55;;;;;;;8.88;100.00;101552.22;10573270;28;20040;-75
2023/12/19 16:39:12;;;;;;;0.98;0.98;;;;;;;8.87;100.00;101545.09;10573314;28;20128;-75
2023/12/19 16:44:13;;;;;;;1.20;0.77;;;;;;;8.88;100.00;101541.41;10575689;28;20475;-75
2023/12/19 16:49:14;;;;;;;0.30;0.30;;;;;;;8.91;100.00;101550.00;10574770;28;20027;-76
2023/12/19 16:54:14;;;;;;;0.30;0.30;;;;;;;8.90;100.00;101551.00;10574635;28;20040;-75
2023/12/19 16:59:15;;;;;;;0.70;0.68;;;;;;;8.91;100.00;101560.81;10574786;28;20399;-76
2023/12/19 17:04:15;;;;;;;0.50;0.50;;;;;;;8.92;100.00;101559.78;10573171;28;20428;-75
2023/12/19 17:09:16;;;;;;;0.60;0.60;;;;;;;8.92;100.00;101554.38;10573335;28;20040;-74
2023/12/19 17:14:18;;;;;;;0.70;0.70;;;;;;;8.97;100.00;101562.84;10574378;28;20032;-75
2023/12/19 17:19:18;;;;;;;0.50;0.50;;;;;;;9.03;100.00;101548.66;10574405;28;20084;-74
2023/12/19 17:24:19;;;;;;;10.32;5.25;;;;;;;9.08;100.00;101561.63;10574156;28;20036;-75
2023/12/19 17:29:19;;;;;;;0.70;0.70;;;;;;;9.09;100.00;101566.00;10581353;28;20030;-75
2023/12/19 17:34:20;;;;;;;0.40;0.40;;;;;;;9.12;100.00;101571.06;10582030;28;20032;-75
2023/12/19 17:39:20;;;;;;;0.45;0.45;;;;;;;9.12;100.00;101556.72;10581893;28;20055;-75
2023/12/19 17:44:21;;;;;;;0.50;0.50;;;;;;;9.13;100.00;101564.66;10582472;28;20039;-76
2023/12/19 17:49:21;;;;;;;0.50;0.50;;;;;;;9.13;100.00;101553.03;10581954;28;20032;-75
2023/12/19 17:54:21;;;;;;;2.63;2.40;;;;;;;9.11;100.00;101563.16;10580122;28;20085;-75
2023/12/19 17:59:22;;;;;;;0.38;0.38;;;;;;;9.16;100.00;101571.59;10581511;28;20059;-76
2023/12/19 18:04:22;;;;;;;0.40;0.40;;;;;;;9.16;100.00;101569.72;10562257;28;20043;-75
2023/12/19 18:09:24;;;;;;;0.45;0.45;;;;;;;9.18;100.00;101577.66;10581154;28;20531;-74
2023/12/19 18:14:25;;;;;;;0.40;0.40;;;;;;;9.16;100.00;101555.38;10580894;28;20044;-75
2023/12/19 18:19:25;;;;;;;0.47;0.47;;;;;;;9.11;100.00;101565.84;10579406;28;20042;-75
2023/12/19 18:24:26;;;;;;;0.50;0.50;;;;;;;9.04;100.00;101574.63;10580447;28;20502;-75
2023/12/19 18:29:26;;;;;;;0.60;0.60;;;;;;;9.02;100.00;101576.66;10578818;28;20023;-75
2023/12/19 18:34:27;;;;;;;0.80;0.80;;;;;;;9.02;100.00;101576.66;10579413;28;20031;-74
2023/12/19 18:39:28;;;;;;;0.50;0.50;;;;;;;9.00;100.00;101577.88;10579398;28;20096;-74
2023/12/19 18:44:28;;;;;;;0.82;0.82;;;;;;;9.00;100.00;101597.63;10578759;28;20123;-75
2023/12/19 18:49:29;;;;;;;0.52;0.52;;;;;;;8.90;100.00;101578.00;10578285;28;20134;-75
2023/12/19 18:54:29;;;;;;;0.50;0.50;;;;;;;8.82;100.00;101596.94;10579264;28;20130;-75
2023/12/19 18:59:30;;;;;;;0.40;0.40;;;;;;;8.75;100.00;101599.47;10578086;28;20040;-75
2023/12/19 19:04:30;;;;;;;0.30;0.30;;;;;;;8.67;100.00;101593.22;10578353;28;20032;-75
2023/12/19 19:09:32;;;;;;;0.40;0.40;;;;;;;8.62;100.00;101604.53;10578728;28;20042;-74
2023/12/19 19:14:32;;;;;;;0.40;0.40;;;;;;;8.57;100.00;101598.78;10578891;28;20486;-75
2023/12/19 19:19:34;;;;;;;0.40;0.40;;;;;;;8.51;100.00;101600.28;10578337;28;20046;-75
2023/12/19 19:24:34;;;;;;;0.40;0.40;;;;;;;8.44;100.00;101601.97;10576941;28;20035;-75
2023/12/19 19:29:35;;;;;;;0.93;0.93;;;;;;;8.38;100.00;101603.47;10578424;28;20032;-76
2023/12/19 19:34:39;;;;;;;35.38;4.80;;;;;;;8.39;100.00;101607.00;10575881;28;20411;-75
2023/12/19 19:39:39;;;;;;;0.50;0.50;;;;;;;8.34;100.00;101609.34;10575212;28;20100;-76
2023/12/19 19:44:40;;;;;;;0.40;0.40;;;;;;;8.31;100.00;101613.22;10576389;28;20044;-75
2023/12/19 19:49:46;;;;;;;4.63;4.35;;;;;;;8.28;100.00;101626.19;10576783;28;20463;-76
2023/12/19 19:54:47;;;;;;;0.38;0.38;;;;;;;8.21;100.00;101635.97;10575690;28;20058;-76
2023/12/19 19:59:47;;;;;;;0.52;0.52;;;;;;;8.04;100.00;101625.13;10575556;28;20046;-77
2023/12/19 20:04:48;;;;;;;0.43;0.43;;;;;;;7.91;100.00;101624.72;10576128;28;20039;-76
2023/12/19 20:09:49;;;;;;;0.93;0.93;;;;;;;7.69;100.00;101627.00;10576557;28;20039;-75
2023/12/19 20:14:49;;;;;;;0.40;0.40;;;;;;;7.57;100.00;101625.56;10576593;28;20471;-76
2023/12/19 20:19:49;;;;;;;0.43;0.43;;;;;;;7.45;100.00;101630.38;10576482;28;20118;-76
2023/12/19 20:24:52;;;;;;;0.50;0.50;;;;;;;7.40;100.00;101637.25;10574705;28;20084;-75
2023/12/19 20:29:53;;;;;;;0.50;0.50;;;;;;;7.43;100.00;101640.50;10575628;28;20126;-76
2023/12/19 20:34:53;;;;;;;0.40;0.40;;;;;;;7.57;100.00;101647.13;10575679;28;20123;-76
2023/12/19 20:39:54;;;;;;;0.32;0.32;;;;;;;7.65;100.00;101636.38;10574186;28;20083;-75
2023/12/19 20:44:55;;;;;;;0.50;0.50;;;;;;;7.66;100.00;101640.78;10575467;28;20109;-75
2023/12/19 20:49:55;;;;;;;0.40;0.40;;;;;;;7.56;100.00;101641.88;10575643;28;20044;-77
2023/12/19 20:54:58;;;;;;;0.40;0.40;;;;;;;7.36;100.00;101643.97;10575536;28;20126;-76
2023/12/19 21:00:03;;;;;;;2.22;2.13;;;;;;;7.29;100.00;101630.28;10575538;28;20452;-75
2023/12/19 21:05:04;;;;;;;0.60;0.60;;;;;;;7.18;100.00;101642.16;10583325;28;20039;-75
2023/12/19 21:10:05;;;;;;;0.50;0.50;;;;;;;7.05;100.00;101628.28;10584245;28;20047;-76
2023/12/19 21:15:06;;;;;;;1.75;1.75;;;;;;;6.92;100.00;101638.56;10565544;28;20035;-76
2023/12/19 21:20:08;;;;;;;3.03;2.92;;;;;;;6.72;100.00;101641.44;10582072;28;20096;-76
2023/12/19 21:25:08;;;;;;;3.72;3.00;;;;;;;6.55;100.00;101644.97;10583437;27;20505;-76
2023/12/19 21:30:09;;;;;;;0.77;0.77;;;;;;;6.44;100.00;101639.81;10582767;28;20031;-76
2023/12/19 21:35:09;;;;;;;0.40;0.40;;;;;;;6.33;100.00;101621.22;10582480;28;20031;-75
2023/12/19 21:40:10;;;;;;;0.50;0.50;;;;;;;6.24;100.00;101618.41;10581468;28;20055;-75
2023/12/19 21:45:10;;;;;;;1.92;1.92;;;;;;;6.19;100.00;101625.25;10581124;28;20235;-75
2023/12/19 21:50:11;;;;;;;0.75;0.75;;;;;;;6.13;100.00;101636.63;10580634;28;20096;-76
2023/12/19 21:55:12;;;;;;;0.40;0.40;;;;;;;6.07;100.00;101646.13;10581624;28;20118;-76
2023/12/19 22:00:12;;;;;;;0.50;0.50;;;;;;;6.11;100.00;101644.84;10581737;28;20035;-75
2023/12/19 22:05:13;;;;;;;2.45;2.35;;;;;;;6.20;100.00;101648.47;10581688;28;20074;-75
2023/12/19 22:10:13;;;;;;;0.50;0.50;;;;;;;6.33;100.00;101648.13;10581195;28;20089;-76
2023/12/19 22:15:19;;;;;;;0.63;0.63;;;;;;;6.49;100.00;101642.91;10581005;27;20191;-75
2023/12/19 22:20:19;;;;;;;0.40;0.40;;;;;;;6.62;100.00;101642.53;10581536;28;20039;-76
2023/12/19 22:25:20;;;;;;;0.55;0.55;;;;;;;6.65;100.00;101626.91;10579712;28;20046;-76
2023/12/19 22:30:21;;;;;;;0.50;0.50;;;;;;;6.50;100.00;101618.50;10579213;28;20511;-77
2023/12/19 22:35:21;;;;;;;0.40;0.40;;;;;;;6.47;100.00;101621.50;10579705;28;20035;-76
2023/12/19 22:40:22;;;;;;;0.50;0.50;;;;;;;6.62;100.00;101613.75;10579103;28;20162;-76
2023/12/19 22:45:23;;;;;;;0.40;0.40;;;;;;;6.75;100.00;101606.13;10579948;28;20032;-76
2023/12/19 22:50:23;;;;;;;0.40;0.40;;;;;;;6.72;100.00;101610.97;10579693;28;20379;-75
2023/12/19 22:55:28;;;;;;;0.63;0.63;;;;;;;6.70;100.00;101623.75;10579423;28;20040;-75
2023/12/19 23:00:28;;;;;;;0.30;0.30;;;;;;;6.61;100.00;101625.53;10579136;28;20489;-75
2023/12/19 23:05:29;;;;;;;0.30;0.30;;;;;;;6.63;100.00;101634.28;10578755;28;20032;-75
2023/12/19 23:10:30;;;;;;;0.40;0.40;;;;;;;6.60;100.00;101634.59;10577475;28;20028;-75